Airfield :
LOGIN :

Register | Disclaimer

   EN    FR    IT 

 










Legend :    VFR   Marginal VFR   IFR   Intensive IFR   Very Intensive IFR
Visi :
Ceiling :
>= 8 km
>= 3000ft
5 to 8 km
1000 to 3000 ft
1500m to 5 km
500 to 1000 ft
800 to 1500m
200 to 500 ft
< 800m
< 200 ft
Symbols :   Thunderstorms  Fog  Heavy snow  Heavy precipitations  Wind > 20 kt
SIGMETs :     Misc.  Thunderstorms  Icing  Turbulence  Mountain Waves  Volcanic Ashes







- Airport Elevation : 162 ft
- IATA code : BOD
- Download approach charts


LFBD - Bordeaux / Merignac

CURRENT METAR :
  • 212230Z AUTO 26003KT CAVOK 18/15 Q1017 NOSIG

EXPIRED METARs :
  • 212200Z AUTO 25003KT CAVOK 19/15 Q1017 NOSIG
  • 212130Z AUTO 27004KT CAVOK 20/15 Q1017 NOSIG
  • 212100Z AUTO 28004KT CAVOK 20/15 Q1017 NOSIG
  • 212030Z AUTO 28004KT CAVOK 20/16 Q1017 NOSIG
  • 212000Z AUTO 26005KT CAVOK 21/16 Q1017 NOSIG

TAF TAF LFBD
Valid from the 21 at 18:00 until the 23 at 00:00 UTC


211700Z 2118/2224 28010KT CAVOK TX28/2315Z TN15/2104Z
BECMG 2119/2121 VRB02KT
TEMPO 2203/2206 0800 BCFG
BECMG 2212/2214 30010KT
ATIS : +33 5 57 92 81 04
No reported NOTAMs for that airfield.



MET'MAP, your aeronautical weather chart ! - Copyright ORBIFLY December 2007 - Disclaimer

ORBIFLY MET'MAP TEAM :

Programming & Development : Alexandra Zaïnal
Concept & Development : Baudouin d'Aumeries
Co-Development & Prog : Marc-Olivier Méhu
Technical & hardware support : Manuel Goepfert

Contact : metmap@orbifly.com




SOURCES & CREDITS :

   NOAA